Time;durP1;ratioP1;P1;durP2;ratioP2;P2;SDS_P1;SDS_P2;PMS_P1;PMS_P2;Temp;Humidity;BMP_temperature;BMP_pressure;BME280_temperature;BME280_humidity;BME280_pressure;Samples;Min_cycle;Max_cycle;Signal;HPM_P1;HPM_P2
2021/12/10 00:00:39;;;;;;;7.93;4.38;;;4.10;99.90;;;;;;6184001;23;20009;-83
2021/12/10 00:03:12;;;;;;;14.32;7.40;;;4.20;99.90;;;;;;6159636;23;20035;-83
2021/12/10 00:05:43;;;;;;;12.60;5.85;;;4.20;99.90;;;;;;6159599;23;20004;-83
2021/12/10 00:08:09;;;;;;;36.80;5.70;;;4.30;99.90;;;;;;6159658;22;20366;-83
2021/12/10 00:10:39;;;;;;;10.63;5.60;;;4.30;99.90;;;;;;6159438;23;20012;-83
2021/12/10 00:13:05;;;;;;;7.00;3.65;;;4.30;99.90;;;;;;6159445;23;20043;-83
2021/12/10 00:15:33;;;;;;;5.65;3.50;;;4.30;99.90;;;;;;6159520;23;20105;-83
2021/12/10 00:18:02;;;;;;;12.40;5.55;;;4.30;99.90;;;;;;6159140;23;20020;-83
2021/12/10 00:20:31;;;;;;;3.90;2.38;;;4.30;99.90;;;;;;6159340;23;20019;-83
2021/12/10 00:23:01;;;;;;;10.77;4.30;;;4.30;99.90;;;;;;6159348;23;20043;-83
2021/12/10 00:25:36;;;;;;;8.90;4.18;;;4.30;99.90;;;;;;6159622;22;20070;-83
2021/12/10 00:28:14;;;;;;;11.10;4.85;;;4.30;99.90;;;;;;6159401;23;20113;-83
2021/12/10 00:31:17;;;;;;;3.85;2.50;;;4.30;99.90;;;;;;6159226;23;20017;-83
2021/12/10 00:33:56;;;;;;;5.95;3.95;;;4.30;99.90;;;;;;6183836;22;20084;-83
2021/12/10 00:36:23;;;;;;;14.82;4.15;;;4.20;99.90;;;;;;6289418;22;20012;-83
2021/12/10 00:38:51;;;;;;;4.03;2.95;;;4.10;99.90;;;;;;6159480;22;20338;-83
2021/12/10 00:41:17;;;;;;;8.40;4.30;;;4.10;99.90;;;;;;6159078;23;20024;-83
2021/12/10 00:43:43;;;;;;;5.63;2.95;;;4.00;99.90;;;;;;6183897;22;20008;-83
2021/12/10 00:46:09;;;;;;;11.75;3.40;;;4.00;99.90;;;;;;6183913;23;20015;-83
2021/12/10 00:48:35;;;;;;;10.35;3.40;;;4.00;99.90;;;;;;6184036;23;20021;-83
2021/12/10 00:51:03;;;;;;;3.92;3.05;;;4.00;99.90;;;;;;6159527;22;20058;-83
2021/12/10 00:53:29;;;;;;;2.95;1.80;;;4.00;99.90;;;;;;6159142;22;20023;-83
2021/12/10 00:55:54;;;;;;;2.65;1.88;;;4.00;99.90;;;;;;6159125;23;20012;-83
2021/12/10 00:58:21;;;;;;;1.58;1.25;;;4.00;99.90;;;;;;6158954;23;20341;-83
2021/12/10 01:00:54;;;;;;;7.38;5.15;;;4.00;99.90;;;;;;6158970;23;20009;-84
2021/12/10 01:03:24;;;;;;;3.05;2.35;;;4.00;99.90;;;;;;6184183;22;20033;-83
2021/12/10 01:05:53;;;;;;;4.32;1.70;;;4.00;99.90;;;;;;6159359;22;20021;-84
2021/12/10 01:08:19;;;;;;;3.63;1.42;;;4.00;99.90;;;;;;6159145;23;20449;-83
2021/12/10 01:10:51;;;;;;;0.77;0.77;;;4.00;99.90;;;;;;6159170;22;20091;-83
2021/12/10 01:13:24;;;;;;;23.75;3.35;;;4.00;99.90;;;;;;6159257;23;20319;-83
2021/12/10 01:16:20;;;;;;;9.02;4.78;;;4.00;99.90;;;;;;6159160;23;20092;-83
2021/12/10 01:24:37;;;;;;;8.52;3.55;;;4.10;99.90;;;;;;6183904;22;20395;-84
2021/12/10 01:27:13;;;;;;;6.22;2.47;;;4.10;99.90;;;;;;6158928;23;20019;-84
2021/12/10 01:29:43;;;;;;;2.30;1.25;;;4.10;99.90;;;;;;6183638;23;20028;-84
2021/12/10 01:32:15;;;;;;;1.42;1.20;;;4.10;99.90;;;;;;6159212;22;20013;-84
2021/12/10 01:34:42;;;;;;;1.98;1.63;;;4.10;99.90;;;;;;6183932;23;20020;-83
2021/12/10 01:37:08;;;;;;;4.22;2.58;;;4.10;99.90;;;;;;6158917;22;20012;-83
2021/12/10 01:39:37;;;;;;;3.67;2.40;;;4.10;99.90;;;;;;6159010;22;20055;-84
2021/12/10 01:42:15;;;;;;;4.85;1.92;;;4.10;99.90;;;;;;6159236;22;20016;-84
2021/12/10 01:44:47;;;;;;;3.03;2.05;;;4.90;99.90;;;;;;6159220;23;20052;-84
2021/12/10 01:47:16;;;;;;;5.43;1.92;;;4.10;99.90;;;;;;6159039;22;20096;-84
2021/12/10 01:49:43;;;;;;;3.15;1.88;;;4.10;99.90;;;;;;6158853;23;20491;-83
2021/12/10 01:52:11;;;;;;;1.08;0.95;;;4.10;99.90;;;;;;6159095;23;20016;-83
2021/12/10 01:54:41;;;;;;;4.97;2.63;;;4.10;99.90;;;;;;6183892;22;20009;-84
2021/12/10 01:57:09;;;;;;;2.85;1.88;;;4.10;99.90;;;;;;6158756;22;20017;-84
2021/12/10 01:59:37;;;;;;;2.70;1.55;;;4.10;99.90;;;;;;6158736;23;20013;-84
2021/12/10 02:02:08;;;;;;;4.07;2.03;;;4.10;99.90;;;;;;6159031;22;20017;-84
2021/12/10 02:04:36;;;;;;;0.70;0.70;;;4.00;99.90;;;;;;6158514;22;20378;-84
2021/12/10 02:07:04;;;;;;;3.38;2.13;;;4.10;99.90;;;;;;6158618;23;20099;-84
2021/12/10 02:09:29;;;;;;;3.10;1.35;;;4.00;99.90;;;;;;6158907;22;20016;-84
2021/12/10 02:11:55;;;;;;;1.15;1.05;;;4.00;99.90;;;;;;6158947;22;20403;-84
2021/12/10 02:14:22;;;;;;;3.67;2.38;;;4.00;99.90;;;;;;6134362;22;20437;-84
2021/12/10 02:16:50;;;;;;;3.08;1.83;;;4.00;99.90;;;;;;6183517;23;20130;-83
2021/12/10 02:19:17;;;;;;;4.57;2.03;;;4.00;99.90;;;;;;6158715;23;20449;-83
2021/12/10 02:21:43;;;;;;;4.22;1.80;;;4.00;99.90;;;;;;6158741;23;20070;-84
2021/12/10 02:24:10;;;;;;;2.70;1.60;;;4.70;99.90;;;;;;6159018;23;20458;-83
2021/12/10 02:26:42;;;;;;;3.47;2.53;;;4.10;99.90;;;;;;6183552;23;20521;-84
2021/12/10 02:29:08;;;;;;;1.30;1.10;;;4.00;99.90;;;;;;6158589;22;20016;-83
2021/12/10 02:31:35;;;;;;;6.78;2.67;;;4.10;99.90;;;;;;6158866;23;20051;-83
2021/12/10 02:34:01;;;;;;;12.48;4.30;;;4.00;99.90;;;;;;6158718;23;20063;-84
2021/12/10 02:36:29;;;;;;;9.02;5.35;;;4.00;99.90;;;;;;6158440;23;20016;-84
2021/12/10 02:38:55;;;;;;;5.32;2.25;;;4.00;99.90;;;;;;6208726;22;20013;-84
2021/12/10 02:41:28;;;;;;;10.52;4.25;;;4.00;99.90;;;;;;6288623;22;20024;-84
2021/12/10 02:43:54;;;;;;;6.68;3.13;;;4.00;99.90;;;;;;6314910;22;20009;-83
2021/12/10 02:46:20;;;;;;;11.43;5.32;;;4.00;99.90;;;;;;6288473;22;20095;-83
2021/12/10 02:48:46;;;;;;;15.15;5.05;;;4.00;99.90;;;;;;6314744;22;20008;-84
2021/12/10 02:51:12;;;;;;;15.38;3.30;;;4.00;99.90;;;;;;6288977;22;20016;-84
2021/12/10 02:53:43;;;;;;;9.30;3.28;;;4.00;99.90;;;;;;6288712;22;20008;-84
2021/12/10 02:56:10;;;;;;;9.88;3.42;;;4.00;99.90;;;;;;6289298;22;20065;-84
2021/12/10 02:58:37;;;;;;;4.15;2.92;;;4.00;99.90;;;;;;6288345;22;20009;-84
2021/12/10 03:01:37;;;;;;;9.85;2.75;;;3.90;99.90;;;;;;6288798;22;20096;-83
2021/12/10 03:04:07;;;;;;;5.38;2.55;;;3.90;99.90;;;;;;6272164;22;20013;-84
2021/12/10 03:06:38;;;;;;;1.85;1.33;;;3.90;99.90;;;;;;6289236;22;20521;-83
2021/12/10 03:09:04;;;;;;;8.77;3.38;;;3.90;99.90;;;;;;6158549;22;20020;-83
2021/12/10 03:11:34;;;;;;;2.53;1.42;;;3.80;99.90;;;;;;6314416;22;20291;-83
2021/12/10 03:14:06;;;;;;;2.38;1.60;;;3.80;99.90;;;;;;6288985;22;20015;-84
2021/12/10 03:16:33;;;;;;;3.30;2.25;;;3.80;99.90;;;;;;6289814;22;20074;-83
2021/12/10 03:18:59;;;;;;;5.82;2.80;;;3.80;99.90;;;;;;6290135;22;20040;-84
2021/12/10 03:21:24;;;;;;;4.40;2.38;;;3.80;99.90;;;;;;6290408;22;20024;-83
2021/12/10 03:23:50;;;;;;;3.00;2.10;;;3.80;99.90;;;;;;6290489;22;20013;-84
2021/12/10 03:26:20;;;;;;;6.40;4.10;;;3.70;99.90;;;;;;6291004;22;20048;-84
2021/12/10 03:28:48;;;;;;;4.95;2.28;;;3.70;99.90;;;;;;6290291;22;20428;-83
2021/12/10 03:31:14;;;;;;;2.65;1.25;;;3.60;99.90;;;;;;6316196;22;20021;-84
2021/12/10 03:33:41;;;;;;;3.53;1.42;;;3.60;99.90;;;;;;6290301;22;20023;-83
2021/12/10 03:36:10;;;;;;;2.47;1.83;;;3.50;99.90;;;;;;6316417;22;20016;-83
2021/12/10 03:38:38;;;;;;;1.45;1.23;;;3.50;99.90;;;;;;6316232;22;20019;-84
2021/12/10 03:41:05;;;;;;;1.38;0.95;;;3.40;99.90;;;;;;6290752;22;20446;-84
2021/12/10 03:43:32;;;;;;;1.05;0.85;;;3.30;99.90;;;;;;6290202;22;20013;-84
2021/12/10 03:45:59;;;;;;;1.77;0.90;;;3.20;99.90;;;;;;6290807;22;20009;-83
2021/12/10 03:48:28;;;;;;;1.25;0.93;;;3.20;99.90;;;;;;6290047;22;20041;-83
2021/12/10 03:50:55;;;;;;;11.60;3.38;;;3.10;99.90;;;;;;6290649;22;20017;-83
2021/12/10 03:53:21;;;;;;;0.80;0.70;;;3.10;99.90;;;;;;6289794;22;20103;-84
2021/12/10 03:55:49;;;;;;;1.45;1.02;;;3.10;99.90;;;;;;6290554;22;20013;-83
2021/12/10 03:58:16;;;;;;;2.53;2.33;;;3.10;99.90;;;;;;6289669;22;20009;-83
2021/12/10 04:00:47;;;;;;;2.75;2.55;;;3.00;99.90;;;;;;6290787;22;20394;-84
2021/12/10 04:03:16;;;;;;;0.60;0.60;;;3.00;99.90;;;;;;6290086;22;20008;-84
2021/12/10 04:05:41;;;;;;;1.20;1.05;;;2.90;99.90;;;;;;6159727;22;20339;-83
2021/12/10 04:08:07;;;;;;;0.55;0.55;;;2.90;99.90;;;;;;6290064;22;20085;-84
2021/12/10 04:10:34;;;;;;;0.60;0.60;;;2.80;99.90;;;;;;6316636;22;20012;-83
2021/12/10 04:13:00;;;;;;;0.50;0.50;;;2.80;99.90;;;;;;6289723;22;20012;-83
2021/12/10 04:15:28;;;;;;;1.20;1.10;;;2.70;99.90;;;;;;6289943;22;20005;-84
2021/12/10 04:17:55;;;;;;;1.08;0.82;;;2.70;99.90;;;;;;6315658;22;20009;-84
2021/12/10 04:20:24;;;;;;;1.17;0.60;;;2.60;99.90;;;;;;6289819;22;20043;-83
2021/12/10 04:22:50;;;;;;;1.92;1.48;;;2.60;99.90;;;;;;6315668;22;20074;-84
2021/12/10 04:25:18;;;;;;;0.93;0.77;;;2.50;99.90;;;;;;6290397;22;20012;-83
2021/12/10 04:27:45;;;;;;;0.68;0.68;;;2.50;99.90;;;;;;6289310;22;20051;-83
2021/12/10 04:30:12;;;;;;;3.08;1.88;;;2.40;99.90;;;;;;6315649;22;20017;-83
2021/12/10 04:32:40;;;;;;;0.40;0.40;;;2.30;99.90;;;;;;6290040;22;20020;-83
2021/12/10 04:35:07;;;;;;;0.90;0.68;;;2.30;99.90;;;;;;6159443;22;20012;-83
2021/12/10 04:37:33;;;;;;;20.27;1.15;;;2.30;99.90;;;;;;6290190;22;20020;-83
2021/12/10 04:40:02;;;;;;;1.40;1.23;;;2.20;99.90;;;;;;6315799;22;20388;-84
2021/12/10 04:42:28;;;;;;;2.35;1.73;;;2.20;99.90;;;;;;6290171;22;20023;-84
2021/12/10 04:44:55;;;;;;;0.93;0.90;;;2.20;99.90;;;;;;6289525;22;20040;-84
2021/12/10 04:47:22;;;;;;;4.10;2.78;;;2.10;99.90;;;;;;6263837;22;20095;-83
2021/12/10 04:49:47;;;;;;;2.78;1.50;;;2.20;99.90;;;;;;6289538;22;20017;-83
2021/12/10 04:52:13;;;;;;;6.70;3.08;;;2.20;99.90;;;;;;6315498;22;20012;-84
2021/12/10 04:54:40;;;;;;;1.88;1.35;;;2.20;99.90;;;;;;6315755;22;20017;-83
2021/12/10 04:57:06;;;;;;;3.50;2.28;;;2.20;99.90;;;;;;6183640;22;20048;-83
2021/12/10 04:59:33;;;;;;;3.70;2.10;;;2.20;99.90;;;;;;6159282;22;20019;-84
2021/12/10 05:02:02;;;;;;;2.58;2.25;;;2.10;99.90;;;;;;6288478;22;20012;-83
2021/12/10 05:04:29;;;;;;;2.28;1.50;;;2.10;99.90;;;;;;6159030;22;20016;-84
2021/12/10 05:06:55;;;;;;;4.47;2.03;;;2.20;99.90;;;;;;6289222;22;20009;-83
2021/12/10 05:09:22;;;;;;;2.03;1.52;;;2.10;99.90;;;;;;6183801;23;20331;-83
2021/12/10 05:11:49;;;;;;;4.82;2.00;;;2.10;99.90;;;;;;6289599;22;20067;-83
2021/12/10 05:14:16;;;;;;;3.45;2.55;;;2.10;99.90;;;;;;6289536;22;20109;-83
2021/12/10 05:16:45;;;;;;;11.98;3.78;;;2.00;99.90;;;;;;6289101;22;20009;-83
2021/12/10 05:19:14;;;;;;;6.38;2.50;;;2.00;99.90;;;;;;6267721;22;20051;-83
2021/12/10 05:21:42;;;;;;;7.40;3.08;;;2.00;99.90;;;;;;6289760;22;20048;-83
2021/12/10 05:24:08;;;;;;;4.28;3.17;;;2.10;99.90;;;;;;6289093;22;20346;-84
2021/12/10 05:26:35;;;;;;;6.78;3.53;;;2.10;99.90;;;;;;6314884;22;20012;-84
2021/12/10 05:29:04;;;;;;;1.75;1.52;;;2.10;99.90;;;;;;6289250;22;20030;-84
2021/12/10 05:31:29;;;;;;;1.02;1.00;;;2.00;99.90;;;;;;6158778;22;20012;-83
2021/12/10 05:33:55;;;;;;;0.50;0.50;;;2.00;99.90;;;;;;6289711;22;20124;-83
2021/12/10 05:36:21;;;;;;;3.70;1.70;;;2.00;99.90;;;;;;6314899;22;20023;-84
2021/12/10 05:38:46;;;;;;;2.80;2.05;;;1.90;99.90;;;;;;6288686;22;20044;-83
2021/12/10 05:41:12;;;;;;;3.03;2.03;;;1.90;99.90;;;;;;6288462;22;20024;-84
2021/12/10 05:43:41;;;;;;;4.13;2.97;;;1.90;99.90;;;;;;6289078;22;20005;-83
2021/12/10 05:46:07;;;;;;;5.18;2.72;;;1.90;99.90;;;;;;6289583;22;20137;-84
2021/12/10 05:48:34;;;;;;;3.47;2.08;;;1.90;99.90;;;;;;6288899;22;20021;-83
2021/12/10 05:50:59;;;;;;;3.00;1.95;;;1.90;99.90;;;;;;6289005;22;20759;-83
2021/12/10 05:53:25;;;;;;;3.67;2.88;;;1.90;99.90;;;;;;6288815;22;20023;-83
2021/12/10 05:55:52;;;;;;;5.72;2.85;;;1.90;99.90;;;;;;6315552;22;20499;-84
2021/12/10 05:58:18;;;;;;;4.47;2.67;;;1.90;99.90;;;;;;6314571;22;20017;-83
2021/12/10 06:00:58;;;;;;;7.07;3.60;;;1.80;99.90;;;;;;6289221;22;20044;-83
2021/12/10 06:03:25;;;;;;;2.63;2.13;;;1.80;99.90;;;;;;6315337;22;20015;-83
2021/12/10 06:05:52;;;;;;;2.05;1.45;;;1.80;99.90;;;;;;6289139;22;20408;-83
2021/12/10 06:08:17;;;;;;;8.00;3.13;;;1.80;99.90;;;;;;6158742;22;20063;-83
2021/12/10 06:10:45;;;;;;;1.50;1.02;;;1.80;99.90;;;;;;6288707;22;20020;-83
2021/12/10 06:13:11;;;;;;;4.00;2.38;;;1.80;99.90;;;;;;6288585;22;20017;-83
2021/12/10 06:15:38;;;;;;;3.38;2.15;;;1.70;99.90;;;;;;6288717;22;20516;-83
2021/12/10 06:18:04;;;;;;;3.22;2.20;;;1.70;99.90;;;;;;6158449;22;20024;-84
2021/12/10 06:20:33;;;;;;;1.67;1.13;;;1.70;99.90;;;;;;6285979;22;20582;-83
2021/12/10 06:22:59;;;;;;;0.50;0.50;;;1.70;99.90;;;;;;6314145;22;20448;-83
2021/12/10 06:25:26;;;;;;;2.13;1.45;;;1.70;99.90;;;;;;6288720;22;20145;-83
2021/12/10 06:27:52;;;;;;;1.10;0.98;;;1.70;99.90;;;;;;6287812;22;20024;-83
2021/12/10 06:30:21;;;;;;;1.15;0.95;;;1.60;99.90;;;;;;6314218;22;20017;-83
2021/12/10 06:32:50;;;;;;;2.33;1.58;;;1.60;99.90;;;;;;6314331;22;20051;-83
2021/12/10 06:35:17;;;;;;;2.30;2.10;;;1.60;99.90;;;;;;6158784;22;20468;-83
2021/12/10 06:37:44;;;;;;;4.07;2.17;;;1.60;99.90;;;;;;6287830;22;20070;-83
2021/12/10 06:40:14;;;;;;;7.78;4.20;;;1.60;99.90;;;;;;6313954;22;20019;-83
2021/12/10 06:42:40;;;;;;;3.50;1.85;;;1.70;99.90;;;;;;6288271;22;20013;-84
2021/12/10 06:45:09;;;;;;;0.98;0.90;;;1.60;99.90;;;;;;6314459;22;20009;-83
2021/12/10 06:47:35;;;;;;;1.48;1.38;;;1.60;99.90;;;;;;6288129;22;20065;-83
2021/12/10 06:50:01;;;;;;;1.20;1.10;;;1.50;99.90;;;;;;6315002;22;20416;-83
2021/12/10 06:52:27;;;;;;;2.08;1.48;;;1.50;99.90;;;;;;6314404;22;20387;-84
2021/12/10 06:54:53;;;;;;;5.75;3.13;;;1.50;99.90;;;;;;6288788;22;20069;-83
2021/12/10 06:57:18;;;;;;;4.38;2.95;;;1.50;99.90;;;;;;6287999;22;20020;-84
2021/12/10 06:59:44;;;;;;;2.92;2.10;;;1.50;99.90;;;;;;6314211;22;20034;-83
2021/12/10 07:02:11;;;;;;;5.57;0.98;;;1.50;99.90;;;;;;6314390;22;20009;-83
2021/12/10 07:04:41;;;;;;;0.50;0.50;;;1.40;99.90;;;;;;6314789;22;20013;-83
2021/12/10 07:07:09;;;;;;;3.78;2.20;;;1.40;99.90;;;;;;6286608;22;20031;-83
2021/12/10 07:09:37;;;;;;;1.05;0.95;;;1.40;99.90;;;;;;6288224;22;20061;-83
2021/12/10 07:12:04;;;;;;;4.93;3.15;;;1.40;99.90;;;;;;6287968;22;20013;-83
2021/12/10 07:14:31;;;;;;;3.30;2.45;;;1.40;99.90;;;;;;6288315;22;20484;-83
2021/12/10 07:16:57;;;;;;;0.82;0.80;;;1.40;99.90;;;;;;6157998;22;20314;-83
2021/12/10 07:19:23;;;;;;;2.13;1.50;;;1.40;99.90;;;;;;6158147;22;20168;-83
2021/12/10 07:21:48;;;;;;;1.67;1.10;;;1.40;99.90;;;;;;6157718;22;20461;-83
2021/12/10 07:24:17;;;;;;;3.63;2.30;;;1.30;99.90;;;;;;6287660;22;20346;-83
2021/12/10 07:26:43;;;;;;;8.00;4.13;;;1.30;99.90;;;;;;6286710;22;20044;-83
2021/12/10 07:29:09;;;;;;;6.07;2.55;;;1.40;99.90;;;;;;6288489;22;20327;-83
2021/12/10 07:31:36;;;;;;;1.27;0.98;;;1.40;99.90;;;;;;6288813;22;20078;-83
2021/12/10 07:34:03;;;;;;;1.08;0.70;;;1.40;99.90;;;;;;6287873;22;20019;-83
2021/12/10 07:36:29;;;;;;;3.53;2.00;;;1.40;99.90;;;;;;6157553;22;20012;-84
2021/12/10 07:38:56;;;;;;;2.42;1.63;;;1.30;99.90;;;;;;6287967;22;20065;-83
2021/12/10 07:41:22;;;;;;;1.75;1.15;;;1.40;99.90;;;;;;6158002;22;20009;-84
2021/12/10 07:43:48;;;;;;;0.85;0.85;;;1.30;99.90;;;;;;6182308;22;20017;-83
2021/12/10 07:46:14;;;;;;;3.00;1.80;;;1.30;99.90;;;;;;6313896;22;20016;-83
2021/12/10 07:48:42;;;;;;;2.35;1.70;;;1.30;99.90;;;;;;6314169;22;20013;-83
2021/12/10 07:51:15;;;;;;;6.78;3.72;;;1.30;99.90;;;;;;6314236;22;20453;-84
2021/12/10 07:53:42;;;;;;;1.20;1.05;;;1.30;99.90;;;;;;6158252;22;20025;-84
2021/12/10 07:56:09;;;;;;;5.38;3.33;;;1.40;99.90;;;;;;6287766;22;20013;-83
2021/12/10 07:58:37;;;;;;;5.82;2.53;;;1.30;99.90;;;;;;6313854;22;20017;-83
2021/12/10 08:01:08;;;;;;;2.97;2.00;;;1.40;99.90;;;;;;6287774;22;20016;-83
2021/12/10 08:03:34;;;;;;;4.05;2.47;;;1.40;99.90;;;;;;6288487;22;20460;-83
2021/12/10 08:06:00;;;;;;;3.90;1.83;;;1.40;99.90;;;;;;6288361;22;20016;-83
2021/12/10 08:08:25;;;;;;;1.20;1.02;;;1.40;99.90;;;;;;6289204;22;20020;-83
2021/12/10 08:10:51;;;;;;;3.08;1.77;;;1.50;99.90;;;;;;6315491;22;20020;-83
2021/12/10 08:13:22;;;;;;;3.55;2.25;;;1.40;99.90;;;;;;6289280;22;20017;-83
2021/12/10 08:15:49;;;;;;;0.85;0.75;;;1.50;99.90;;;;;;6316300;22;20087;-83
2021/12/10 08:18:14;;;;;;;3.70;1.85;;;1.50;99.90;;;;;;6314809;22;20023;-83
2021/12/10 08:20:40;;;;;;;6.32;3.10;;;1.50;99.90;;;;;;6289401;22;20024;-83
2021/12/10 08:23:06;;;;;;;3.20;2.65;;;1.50;99.90;;;;;;6315501;22;20454;-83
2021/12/10 08:25:32;;;;;;;8.57;2.58;;;1.50;99.90;;;;;;6289352;22;20012;-83
2021/12/10 08:27:59;;;;;;;3.97;2.30;;;1.50;99.90;;;;;;6289373;22;20005;-83
2021/12/10 08:30:27;;;;;;;2.20;1.70;;;1.50;99.90;;;;;;6289127;22;20051;-83
2021/12/10 08:32:55;;;;;;;7.60;2.75;;;1.60;99.90;;;;;;6183121;23;20116;-83
2021/12/10 08:35:25;;;;;;;1.10;1.00;;;1.60;99.90;;;;;;6287355;22;20105;-83
2021/12/10 08:37:52;;;;;;;2.80;1.75;;;1.60;99.90;;;;;;6289059;22;20028;-83
2021/12/10 08:40:25;;;;;;;3.42;2.58;;;1.60;99.90;;;;;;6290501;22;20376;-83
2021/12/10 08:42:52;;;;;;;2.25;1.33;;;1.60;99.90;;;;;;6289484;22;20047;-83
2021/12/10 08:45:19;;;;;;;2.97;2.40;;;1.60;99.90;;;;;;6288922;22;20013;-83
2021/12/10 08:47:46;;;;;;;1.85;1.23;;;1.60;99.90;;;;;;6289279;22;20005;-84
2021/12/10 08:50:12;;;;;;;2.45;1.48;;;1.60;99.90;;;;;;6160256;22;20098;-83
2021/12/10 08:52:38;;;;;;;4.93;2.17;;;1.70;99.90;;;;;;6290504;22;20020;-83
2021/12/10 08:55:05;;;;;;;1.77;1.30;;;1.70;99.90;;;;;;6290377;22;20012;-83
2021/12/10 08:57:31;;;;;;;3.60;1.90;;;2.10;99.90;;;;;;6316043;22;20025;-83
2021/12/10 08:59:58;;;;;;;2.70;1.65;;;1.80;99.90;;;;;;6290924;22;20023;-83
2021/12/10 09:02:24;;;;;;;2.83;1.75;;;1.80;99.90;;;;;;6160180;22;20111;-83
2021/12/10 09:04:49;;;;;;;2.05;1.40;;;2.60;99.90;;;;;;6288756;22;20056;-83
2021/12/10 09:07:17;;;;;;;1.95;1.50;;;1.90;99.90;;;;;;6286351;22;20052;-83
2021/12/10 09:09:45;;;;;;;1.95;1.50;;;1.90;99.90;;;;;;6286808;22;20043;-83
2021/12/10 09:12:16;;;;;;;3.78;1.92;;;1.90;99.90;;;;;;6313746;22;20469;-83
2021/12/10 09:14:47;;;;;;;4.43;2.70;;;2.00;99.90;;;;;;6313706;22;20133;-83
2021/12/10 09:17:21;;;;;;;4.22;1.80;;;2.00;99.90;;;;;;6287675;22;20044;-83
2021/12/10 09:19:47;;;;;;;0.63;0.63;;;2.10;99.90;;;;;;6312599;22;20096;-83
2021/12/10 09:22:12;;;;;;;1.52;1.13;;;2.10;99.90;;;;;;6313088;22;20062;-84
2021/12/10 09:24:40;;;;;;;0.63;0.63;;;2.10;99.90;;;;;;6287483;22;20008;-83
2021/12/10 09:27:06;;;;;;;1.85;1.67;;;2.10;99.90;;;;;;6156831;22;20341;-83
2021/12/10 09:29:35;;;;;;;3.05;1.95;;;2.20;99.90;;;;;;6286907;22;20331;-83
2021/12/10 09:32:04;;;;;;;9.45;3.97;;;2.20;99.90;;;;;;6286542;22;20017;-83
2021/12/10 09:34:29;;;;;;;6.63;2.15;;;2.30;99.90;;;;;;6313222;22;20041;-84
2021/12/10 09:36:56;;;;;;;2.53;1.70;;;2.30;99.90;;;;;;6286262;22;20119;-84
2021/12/10 09:39:21;;;;;;;6.88;3.20;;;2.40;99.90;;;;;;6287416;22;20021;-84
2021/12/10 09:41:49;;;;;;;3.05;2.40;;;2.40;99.90;;;;;;6312946;22;20015;-83
2021/12/10 09:44:15;;;;;;;2.35;1.42;;;2.50;99.90;;;;;;6313174;22;20017;-84
2021/12/10 09:46:42;;;;;;;3.42;2.05;;;2.50;99.90;;;;;;6286650;22;20028;-83
2021/12/10 09:49:10;;;;;;;3.00;2.08;;;2.60;99.90;;;;;;6157450;22;20008;-84
2021/12/10 09:51:46;;;;;;;3.58;2.00;;;2.60;99.90;;;;;;6287303;22;20013;-83
2021/12/10 09:54:16;;;;;;;3.08;1.40;;;2.70;99.90;;;;;;6288834;22;20017;-83
2021/12/10 09:56:48;;;;;;;2.13;1.83;;;2.70;99.90;;;;;;6290462;22;20027;-84
2021/12/10 09:59:16;;;;;;;3.15;1.77;;;2.80;99.90;;;;;;6290036;22;20137;-83
2021/12/10 10:01:44;;;;;;;1.73;1.40;;;2.80;99.90;;;;;;6289800;22;20457;-86
2021/12/10 10:04:11;;;;;;;3.55;1.38;;;2.90;99.90;;;;;;6289329;22;20013;-83
2021/12/10 10:06:41;;;;;;;1.90;0.82;;;2.90;99.90;;;;;;6314704;22;20013;-83
2021/12/10 10:09:09;;;;;;;1.02;0.93;;;3.00;99.90;;;;;;6289106;22;20012;-83
2021/12/10 10:11:35;;;;;;;3.38;2.22;;;3.00;99.90;;;;;;6288116;22;20095;-86
2021/12/10 10:14:02;;;;;;;5.65;2.60;;;3.10;99.90;;;;;;6315169;22;20059;-83
2021/12/10 10:16:29;;;;;;;6.72;3.08;;;3.10;99.90;;;;;;6314720;22;20019;-83
2021/12/10 10:18:56;;;;;;;4.88;2.30;;;3.20;99.90;;;;;;6314191;22;20396;-83
2021/12/10 10:21:35;;;;;;;2.65;1.35;;;3.20;99.90;;;;;;6288272;22;20019;-83
2021/12/10 10:24:01;;;;;;;4.57;2.63;;;3.30;99.90;;;;;;6287954;22;20023;-83
2021/12/10 10:26:32;;;;;;;2.03;1.60;;;3.30;99.90;;;;;;6313807;22;20009;-83
2021/12/10 10:29:05;;;;;;;3.85;2.28;;;3.30;99.90;;;;;;6288834;22;20088;-83
2021/12/10 10:31:37;;;;;;;1.67;1.40;;;3.40;99.90;;;;;;6314849;22;20024;-83
2021/12/10 10:34:03;;;;;;;0.50;0.50;;;3.40;99.90;;;;;;6315970;22;20019;-83
2021/12/10 10:36:32;;;;;;;3.20;1.90;;;3.40;99.90;;;;;;6289651;22;20044;-83
2021/12/10 10:39:23;;;;;;;1.60;0.93;;;3.50;99.90;;;;;;6289606;22;20048;-83
2021/12/10 10:41:53;;;;;;;0.70;0.70;;;3.50;99.90;;;;;;6184698;22;20497;-83
2021/12/10 10:44:19;;;;;;;1.55;0.75;;;3.70;99.90;;;;;;6316386;22;20015;-83
2021/12/10 10:46:47;;;;;;;3.80;2.17;;;3.60;99.90;;;;;;6289889;22;20013;-83
2021/12/10 10:49:34;;;;;;;3.70;1.67;;;3.60;99.90;;;;;;6289678;22;20069;-83
2021/12/10 10:52:24;;;;;;;1.40;1.17;;;3.70;99.90;;;;;;6289384;22;20017;-83
2021/12/10 10:54:53;;;;;;;5.50;1.48;;;3.70;99.90;;;;;;6315361;22;20079;-83
2021/12/10 10:57:26;;;;;;;3.58;1.80;;;3.80;99.90;;;;;;6157736;22;20016;-83
2021/12/10 10:59:59;;;;;;;6.85;2.85;;;3.90;99.90;;;;;;6314136;22;20380;-83
2021/12/10 11:02:37;;;;;;;2.80;1.73;;;3.90;99.90;;;;;;6158350;22;20015;-83
2021/12/10 11:05:11;;;;;;;7.85;1.40;;;3.90;99.90;;;;;;6288322;22;20434;-84
2021/12/10 11:07:45;;;;;;;0.50;0.50;;;4.00;99.90;;;;;;6288389;22;20392;-83
2021/12/10 11:10:12;;;;;;;2.58;1.45;;;4.00;99.90;;;;;;6314467;22;20032;-83
2021/12/10 11:12:41;;;;;;;4.47;1.85;;;4.00;99.90;;;;;;6288022;22;20019;-83
2021/12/10 11:15:10;;;;;;;0.55;0.55;;;4.10;99.90;;;;;;6287979;22;20044;-83
2021/12/10 11:17:40;;;;;;;1.73;1.33;;;4.10;99.90;;;;;;6288295;22;20461;-83
2021/12/10 11:20:30;;;;;;;8.95;2.55;;;4.10;99.90;;;;;;6289026;22;20017;-83
2021/12/10 11:22:59;;;;;;;2.42;1.00;;;4.10;99.90;;;;;;6314429;22;20016;-83
2021/12/10 11:25:35;;;;;;;1.08;0.63;;;4.20;99.90;;;;;;6288123;22;20013;-83
2021/12/10 11:28:34;;;;;;;4.70;2.28;;;4.20;99.90;;;;;;6288419;22;20012;-83
2021/12/10 11:31:14;;;;;;;2.67;1.20;;;4.20;99.90;;;;;;6159207;22;20020;-83
2021/12/10 11:33:48;;;;;;;1.83;1.52;;;4.20;99.90;;;;;;6157723;22;20033;-83
2021/12/10 11:36:23;;;;;;;2.03;1.42;;;4.20;99.90;;;;;;6314364;22;20066;-83
2021/12/10 11:38:54;;;;;;;2.90;1.60;;;4.20;99.90;;;;;;6159067;22;20016;-83
2021/12/10 11:41:26;;;;;;;2.55;1.42;;;4.20;99.90;;;;;;6290441;22;20009;-83
2021/12/10 11:46:46;;;;;;;0.40;0.40;;;4.20;99.90;;;;;;6315765;22;20020;-83
2021/12/10 11:49:27;;;;;;;1.60;1.23;;;4.20;99.90;;;;;;6291164;22;20353;-83
2021/12/10 11:52:18;;;;;;;2.17;1.25;;;4.20;99.90;;;;;;6291152;22;20009;-83
2021/12/10 11:54:50;;;;;;;3.17;2.03;;;4.20;99.90;;;;;;6158389;22;20020;-84
2021/12/10 11:57:23;;;;;;;0.77;0.75;;;4.10;99.90;;;;;;6289816;22;20290;-83
2021/12/10 11:59:59;;;;;;;0.52;0.50;;;4.10;99.90;;;;;;6289852;22;20383;-83
2021/12/10 12:02:33;;;;;;;0.57;0.52;;;4.10;99.90;;;;;;6289835;22;20457;-83
2021/12/10 12:05:03;;;;;;;0.80;0.75;;;4.20;99.90;;;;;;6290006;22;20024;-83
2021/12/10 12:07:46;;;;;;;1.83;1.67;;;4.20;99.90;;;;;;6290049;22;20065;-83
2021/12/10 12:10:22;;;;;;;3.55;1.83;;;4.20;99.90;;;;;;6315655;22;20021;-83
2021/12/10 12:12:49;;;;;;;1.60;0.80;;;4.20;99.90;;;;;;6159332;22;20017;-83
2021/12/10 12:15:27;;;;;;;1.25;1.08;;;4.20;99.90;;;;;;6289802;22;20017;-83
2021/12/10 12:17:56;;;;;;;2.10;1.42;;;4.20;99.90;;;;;;6290016;22;20342;-83
2021/12/10 12:20:47;;;;;;;0.93;0.73;;;4.20;99.90;;;;;;6290167;22;20400;-83
2021/12/10 12:26:29;;;;;;;0.45;0.45;;;4.20;99.90;;;;;;6305045;22;20397;-83
2021/12/10 12:28:56;;;;;;;3.63;1.58;;;4.20;99.90;;;;;;6159209;22;20023;-83
2021/12/10 12:31:24;;;;;;;1.85;1.17;;;4.20;99.90;;;;;;6289750;22;20083;-83
2021/12/10 12:34:02;;;;;;;1.33;1.08;;;4.20;99.90;;;;;;6289687;22;20353;-83
2021/12/10 12:36:52;;;;;;;1.40;1.10;;;4.20;99.90;;;;;;6159713;22;20087;-83
2021/12/10 12:39:31;;;;;;;1.05;0.95;;;4.20;99.90;;;;;;6289797;22;20016;-83
2021/12/10 12:41:59;;;;;;;0.40;0.40;;;4.20;99.90;;;;;;6289629;22;20021;-83
2021/12/10 12:44:25;;;;;;;2.10;1.40;;;4.20;99.90;;;;;;6289642;22;20067;-83
2021/12/10 12:47:12;;;;;;;6.03;1.88;;;4.20;99.90;;;;;;6315129;22;20469;-83
2021/12/10 12:49:37;;;;;;;7.32;2.05;;;4.20;99.90;;;;;;6315943;22;20013;-83
2021/12/10 12:52:09;;;;;;;0.88;0.82;;;4.30;99.90;;;;;;6315261;22;20450;-83
2021/12/10 12:54:41;;;;;;;3.33;1.40;;;4.20;99.90;;;;;;6289496;22;20013;-83
2021/12/10 12:57:10;;;;;;;1.33;0.90;;;4.20;99.90;;;;;;6290912;22;20020;-84
2021/12/10 12:59:40;;;;;;;1.00;0.80;;;4.20;99.90;;;;;;6290480;22;20020;-85
2021/12/10 13:02:08;;;;;;;0.85;0.77;;;4.20;99.90;;;;;;6315616;22;20504;-86
2021/12/10 13:04:38;;;;;;;1.15;0.90;;;4.20;99.90;;;;;;6290229;22;20016;-86
2021/12/10 13:07:17;;;;;;;1.63;1.50;;;4.20;99.90;;;;;;6158518;22;20015;-84
2021/12/10 13:09:53;;;;;;;2.50;1.25;;;4.20;99.90;;;;;;6289803;22;20511;-84
2021/12/10 13:15:07;;;;;;;1.48;0.68;;;4.20;99.90;;;;;;6315378;22;20024;-84
2021/12/10 13:17:37;;;;;;;5.85;0.98;;;4.20;99.90;;;;;;6288945;22;20016;-85
2021/12/10 13:20:09;;;;;;;1.48;1.00;;;4.20;99.90;;;;;;6289480;22;20044;-84